Time;durP1;ratioP1;P1;durP2;ratioP2;P2;SDS_P1;SDS_P2;PMS_P1;PMS_P2;Temp;Humidity;BMP_temperature;BMP_pressure;BME280_temperature;BME280_humidity;BME280_pressure;Samples;Min_cycle;Max_cycle;Signal;HPM_P1;HPM_P2
2021/06/11 00:00:51;;;;;;;20.38;12.48;;;;;;;15.28;81.05;98845.81;5131159;27;20058;-91
2021/06/11 00:03:19;;;;;;;18.55;12.63;;;;;;;15.30;81.14;98853.81;5132528;27;20468;-91
2021/06/11 00:05:45;;;;;;;19.90;12.95;;;;;;;15.23;81.54;98858.56;5131808;27;20032;-93
2021/06/11 00:08:11;;;;;;;21.95;13.98;;;;;;;15.23;81.55;98855.03;5132249;27;20036;-92
2021/06/11 00:10:37;;;;;;;22.05;13.20;;;;;;;15.09;81.98;98836.88;5132204;27;20036;-92
2021/06/11 00:13:04;;;;;;;20.27;13.85;;;;;;;15.24;81.28;98854.06;5132037;27;20050;-91
2021/06/11 00:15:30;;;;;;;21.52;14.38;;;;;;;15.23;81.40;98849.66;5131292;27;20516;-91
2021/06/11 00:17:56;;;;;;;19.48;13.10;;;;;;;15.15;81.38;98842.81;5131925;27;20059;-93
2021/06/11 00:20:23;;;;;;;19.75;12.90;;;;;;;15.11;81.26;98843.88;5131763;27;20049;-92
2021/06/11 00:22:50;;;;;;;20.13;13.40;;;;;;;15.06;81.57;98845.06;5131801;27;20041;-92
2021/06/11 00:25:19;;;;;;;19.52;13.30;;;;;;;15.01;81.76;98842.56;5131487;27;20047;-92
2021/06/11 00:27:45;;;;;;;23.63;13.68;;;;;;;14.98;81.67;98848.06;5130591;27;20460;-92
2021/06/11 00:30:12;;;;;;;22.52;14.15;;;;;;;14.86;82.47;98857.50;5130044;27;20123;-91
2021/06/11 00:32:38;;;;;;;21.60;13.85;;;;;;;14.87;82.74;98856.56;5129080;27;20046;-91
2021/06/11 00:35:06;;;;;;;20.83;14.25;;;;;;;14.73;83.17;98850.94;5131038;27;20035;-93
2021/06/11 00:37:33;;;;;;;21.27;14.52;;;;;;;14.61;83.25;98824.69;5130207;27;20035;-92
2021/06/11 00:39:59;;;;;;;19.55;13.00;;;;;;;14.72;83.35;98851.84;5119698;27;21179;-93
2021/06/11 00:42:25;;;;;;;23.20;14.40;;;;;;;14.69;83.31;98841.28;5117275;28;20031;-92
2021/06/11 00:44:51;;;;;;;19.75;13.70;;;;;;;14.66;83.67;98822.66;5116994;28;20057;-92
2021/06/11 00:47:17;;;;;;;20.65;13.40;;;;;;;14.74;83.38;98837.47;5117697;28;20092;-92
2021/06/11 00:49:44;;;;;;;19.40;13.15;;;;;;;14.84;83.17;98845.13;5118008;28;20039;-92
2021/06/11 00:52:10;;;;;;;21.40;13.73;;;;;;;14.79;82.95;98827.44;5118308;28;20047;-92
2021/06/11 00:54:38;;;;;;;22.23;13.88;;;;;;;14.75;83.62;98830.31;5117960;28;20504;-92
2021/06/11 00:57:05;;;;;;;21.73;14.18;;;;;;;14.77;83.60;98828.47;5117442;28;20036;-92
2021/06/11 00:59:31;;;;;;;22.30;13.88;;;;;;;14.76;82.61;98813.31;5109601;28;20509;-94
2021/06/11 01:01:57;;;;;;;20.88;14.45;;;;;;;14.79;83.56;98834.63;5116048;28;20071;-94
2021/06/11 01:04:22;;;;;;;22.58;14.27;;;;;;;14.74;83.23;98818.72;5117217;27;20070;-92
2021/06/11 01:06:49;;;;;;;21.63;14.15;;;;;;;14.81;82.97;98827.34;5117405;28;20119;-93
2021/06/11 01:09:16;;;;;;;25.92;14.43;;;;;;;14.73;83.01;98830.38;5117711;28;20122;-92
2021/06/11 01:11:45;;;;;;;23.85;14.63;;;;;;;14.81;82.92;98830.03;5118175;28;20040;-92
2021/06/11 01:14:12;;;;;;;20.85;13.85;;;;;;;14.77;83.03;98828.47;5117750;28;20419;-92
2021/06/11 01:16:41;;;;;;;21.15;14.00;;;;;;;14.88;82.60;98834.22;5116501;28;20048;-91
2021/06/11 01:19:11;;;;;;;21.73;13.85;;;;;;;14.93;82.04;98829.50;5117330;27;20044;-93
2021/06/11 01:21:45;;;;;;;20.58;13.65;;;;;;;14.91;81.79;98819.81;5109496;28;20564;-94
2021/06/11 01:24:15;;;;;;;21.33;13.57;;;;;;;14.93;82.34;98821.47;5118876;28;20048;-92
2021/06/11 01:26:43;;;;;;;22.65;14.35;;;;;;;14.98;82.29;98834.66;5117258;28;20043;-93
2021/06/11 01:29:12;;;;;;;22.98;13.90;;;;;;;14.90;82.36;98850.22;5117183;28;20048;-92
2021/06/11 01:31:40;;;;;;;;;;;;;;;14.83;82.72;98848.72;5117879;28;20415;-93
2021/06/11 01:34:12;;;;;;;19.48;13.52;;;;;;;14.71;82.52;98836.75;5117097;28;20419;-93
2021/06/11 01:36:40;;;;;;;21.30;13.38;;;;;;;14.65;83.01;98837.88;5116866;28;20040;-93
2021/06/11 01:39:09;;;;;;;21.55;13.18;;;;;;;14.51;82.76;98824.19;5116187;28;20048;-92
2021/06/11 01:41:37;;;;;;;22.53;14.73;;;;;;;14.43;83.03;98819.16;5116272;28;20032;-93
2021/06/11 01:44:07;;;;;;;22.08;13.68;;;;;;;14.53;82.86;98827.63;5116119;28;20082;-92
2021/06/11 01:46:34;;;;;;;21.73;13.63;;;;;;;14.53;83.65;98839.25;5115601;28;20126;-93
2021/06/11 01:49:02;;;;;;;22.45;14.20;;;;;;;14.51;83.41;98845.59;5116314;28;20040;-93
2021/06/11 01:51:29;;;;;;;19.42;13.10;;;;;;;14.44;83.29;98834.25;5116279;28;20075;-92
2021/06/11 01:53:59;;;;;;;23.73;14.45;;;;;;;14.31;83.62;98815.19;5116455;28;20039;-92
2021/06/11 01:56:26;;;;;;;18.02;12.38;;;;;;;14.31;83.29;98811.63;5116508;28;20039;-93
2021/06/11 01:58:53;;;;;;;21.70;13.55;;;;;;;14.30;83.13;98816.09;5116554;28;20047;-93
2021/06/11 02:01:21;;;;;;;25.10;14.20;;;;;;;14.39;83.67;98836.25;5116462;28;20043;-93
2021/06/11 02:03:49;;;;;;;22.13;13.03;;;;;;;14.29;82.55;98818.84;5116288;28;20101;-93
2021/06/11 02:06:17;;;;;;;20.52;13.20;;;;;;;14.24;83.18;98829.72;5116644;28;20287;-92
2021/06/11 02:08:44;;;;;;;20.35;13.48;;;;;;;14.16;83.78;98829.16;5116310;28;20051;-92
2021/06/11 02:11:10;;;;;;;20.83;12.88;;;;;;;14.29;82.98;98835.78;5116091;28;20047;-93
2021/06/11 02:13:39;;;;;;;23.65;14.25;;;;;;;14.21;84.21;98829.00;5116124;28;20213;-94
2021/06/11 02:16:06;;;;;;;21.58;13.93;;;;;;;14.10;83.78;98822.28;5115926;28;20043;-94
2021/06/11 02:18:34;;;;;;;20.52;13.68;;;;;;;14.14;84.17;98837.28;5116322;28;20034;-93
2021/06/11 02:21:04;;;;;;;26.20;14.20;;;;;;;14.15;83.61;98846.16;5115639;28;20043;-94
2021/06/11 02:23:30;;;;;;;23.23;14.00;;;;;;;14.19;83.66;98839.75;5115599;28;20039;-94
2021/06/11 02:25:56;;;;;;;23.80;14.85;;;;;;;14.16;83.41;98843.44;5115696;28;20055;-91
2021/06/11 02:28:22;;;;;;;22.75;13.98;;;;;;;14.01;84.11;98838.69;5115096;28;20397;-93
2021/06/11 02:30:48;;;;;;;21.05;13.70;;;;;;;13.92;84.62;98834.59;5114648;28;20456;-92
2021/06/11 02:33:14;;;;;;;19.33;12.85;;;;;;;14.01;84.38;98848.50;5115161;28;20135;-92
2021/06/11 02:35:42;;;;;;;21.35;12.25;;;;;;;14.03;84.22;98842.19;5115093;28;20039;-94
2021/06/11 02:38:08;;;;;;;19.67;13.00;;;;;;;14.04;83.82;98827.88;5115136;28;20042;-94
2021/06/11 02:40:34;;;;;;;19.95;13.57;;;;;;;14.05;83.67;98828.72;5115910;28;20036;-93
2021/06/11 02:43:05;;;;;;;21.73;13.73;;;;;;;14.04;83.52;98821.66;5115165;27;20122;-93
2021/06/11 02:45:43;;;;;;;21.98;13.73;;;;;;;14.08;83.14;98823.28;5114801;28;20501;-92
2021/06/11 02:48:19;;;;;;;21.65;13.23;;;;;;;14.13;83.44;98829.31;5107655;28;20046;-93
2021/06/11 02:50:52;;;;;;;21.35;13.70;;;;;;;14.15;82.90;98835.47;5115506;28;20051;-92
2021/06/11 02:53:25;;;;;;;18.85;13.40;;;;;;;14.24;82.39;98835.06;5114893;28;20057;-92
2021/06/11 02:55:57;;;;;;;19.88;13.13;;;;;;;14.25;82.41;98831.47;5094809;28;20043;-93
2021/06/11 02:58:28;;;;;;;19.35;12.52;;;;;;;14.23;82.38;98824.47;5099091;28;20123;-93
2021/06/11 03:00:55;;;;;;;19.92;12.43;;;;;;;14.20;82.26;98827.25;5114512;28;20089;-94
2021/06/11 03:03:24;;;;;;;19.48;13.55;;;;;;;14.18;81.61;98832.66;5114472;28;20131;-94
2021/06/11 03:05:54;;;;;;;21.98;12.85;;;;;;;14.10;81.82;98824.94;5114961;28;20039;-94
2021/06/11 03:08:24;;;;;;;20.25;13.05;;;;;;;14.12;82.20;98838.28;5114688;28;20039;-92
2021/06/11 03:10:54;;;;;;;22.27;13.27;;;;;;;14.03;82.11;98831.50;5114866;28;20061;-93
2021/06/11 03:13:22;;;;;;;24.02;13.38;;;;;;;13.86;82.45;98823.28;5114970;28;20071;-93
2021/06/11 03:15:49;;;;;;;20.90;13.75;;;;;;;13.88;82.78;98840.09;5114207;28;20042;-93
2021/06/11 03:18:24;;;;;;;21.50;13.50;;;;;;;13.76;82.89;98830.75;5114485;28;20066;-93
2021/06/11 03:20:55;;;;;;;21.40;12.85;;;;;;;13.84;83.00;98833.16;5098596;28;20388;-93
2021/06/11 03:23:29;;;;;;;20.83;12.90;;;;;;;13.74;82.64;98806.75;5114948;28;20044;-92
2021/06/11 03:26:00;;;;;;;19.92;13.07;;;;;;;13.69;82.95;98807.91;5114982;28;20047;-94
2021/06/11 03:28:32;;;;;;;23.80;15.18;;;;;;;13.69;83.22;98810.56;5114762;28;20519;-92
2021/06/11 03:31:02;;;;;;;22.25;14.73;;;;;;;13.79;83.25;98825.28;5094457;28;20067;-92
2021/06/11 03:33:31;;;;;;;20.45;14.50;;;;;;;13.72;83.71;98831.81;5094890;28;20040;-93
2021/06/11 03:36:05;;;;;;;23.17;14.45;;;;;;;13.72;83.65;98819.31;5114536;28;20414;-92
2021/06/11 03:38:36;;;;;;;24.08;14.27;;;;;;;13.79;83.65;98827.97;5115191;28;20044;-93
2021/06/11 03:41:02;;;;;;;25.10;14.05;;;;;;;13.93;82.97;98849.69;5115074;28;20462;-94
2021/06/11 03:43:29;;;;;;;22.02;14.50;;;;;;;13.98;82.70;98841.47;5115075;28;20044;-93
2021/06/11 03:45:57;;;;;;;22.40;13.85;;;;;;;13.86;83.02;98831.28;5115145;28;20126;-93
2021/06/11 03:48:24;;;;;;;25.48;14.52;;;;;;;13.89;83.49;98839.19;5115596;28;20046;-93
2021/06/11 03:50:51;;;;;;;22.45;13.68;;;;;;;13.92;82.85;98847.06;5114625;28;20130;-92
2021/06/11 03:53:21;;;;;;;24.08;13.35;;;;;;;13.91;82.53;98842.66;5114608;28;20369;-93
2021/06/11 03:55:49;;;;;;;21.17;13.57;;;;;;;13.90;82.55;98847.16;5114534;28;20047;-93
2021/06/11 03:58:21;;;;;;;21.40;13.80;;;;;;;13.94;83.13;98861.25;5115304;28;20059;-94
2021/06/11 04:00:50;;;;;;;23.25;13.73;;;;;;;13.86;83.28;98850.00;5114861;28;20045;-93
2021/06/11 04:03:17;;;;;;;22.48;14.20;;;;;;;13.76;83.22;98833.44;5114412;28;20044;-92
2021/06/11 04:05:43;;;;;;;19.25;13.00;;;;;;;13.81;82.99;98833.25;5114248;28;20047;-91
2021/06/11 04:08:15;;;;;;;17.30;11.98;;;;;;;13.91;82.25;98834.66;5114669;28;20445;-93
2021/06/11 04:10:45;;;;;;;21.17;12.65;;;;;;;14.07;82.57;98858.97;5114725;28;20044;-93
2021/06/11 04:13:17;;;;;;;21.45;13.45;;;;;;;13.99;83.35;98848.59;5115205;28;20050;-92
2021/06/11 04:15:44;;;;;;;21.52;13.55;;;;;;;13.97;83.13;98842.44;5117407;28;20043;-92
2021/06/11 04:18:13;;;;;;;19.95;13.18;;;;;;;13.96;83.06;98830.84;5118291;28;20064;-92
2021/06/11 04:20:41;;;;;;;20.35;14.02;;;;;;;14.04;83.15;98843.06;5118008;28;20079;-94
2021/06/11 04:23:08;;;;;;;19.35;13.82;;;;;;;14.14;83.29;98856.00;5118088;27;20046;-91
2021/06/11 04:25:37;;;;;;;22.27;13.20;;;;;;;14.19;82.85;98863.81;5117912;28;20085;-93
2021/06/11 04:28:06;;;;;;;22.42;13.52;;;;;;;14.23;82.80;98853.88;5117781;28;20048;-92
2021/06/11 04:30:33;;;;;;;21.85;13.55;;;;;;;14.25;82.73;98852.00;5117886;28;20049;-92
2021/06/11 04:32:59;;;;;;;20.40;14.13;;;;;;;14.31;82.90;98858.00;5118308;28;20077;-93
2021/06/11 04:35:26;;;;;;;21.98;14.30;;;;;;;14.31;82.68;98849.06;5117785;28;20036;-94
2021/06/11 04:37:54;;;;;;;23.83;15.27;;;;;;;14.34;82.86;98839.13;5117772;28;20430;-93
2021/06/11 04:40:20;;;;;;;22.27;13.75;;;;;;;14.43;82.29;98834.34;5117729;28;20035;-94
2021/06/11 04:42:45;;;;;;;22.90;13.30;;;;;;;14.50;82.21;98841.16;5117522;27;20097;-93
2021/06/11 04:45:14;;;;;;;21.73;13.43;;;;;;;14.67;81.50;98856.53;5117461;28;20035;-93
2021/06/11 04:47:40;;;;;;;21.50;13.32;;;;;;;14.75;80.95;98852.59;5117305;28;20035;-92
2021/06/11 04:50:07;;;;;;;22.20;12.93;;;;;;;14.84;80.23;98835.28;5117688;28;20127;-94
2021/06/11 04:52:32;;;;;;;19.92;12.82;;;;;;;15.20;78.77;98832.78;5117767;28;20040;-93
2021/06/11 04:55:06;;;;;;;19.77;13.25;;;;;;;15.82;76.39;98828.16;5117588;28;20054;-93
2021/06/11 04:57:51;;;;;;;17.15;12.10;;;;;;;16.78;73.89;98843.09;5117534;28;20040;-93
2021/06/11 05:00:19;;;;;;;18.52;11.70;;;;;;;17.36;71.06;98824.94;5121229;28;20071;-94
2021/06/11 05:02:45;;;;;;;19.00;12.07;;;;;;;17.95;68.73;98841.44;5117576;28;20047;-92
2021/06/11 05:05:11;;;;;;;18.23;11.98;;;;;;;18.11;67.17;98831.56;5113903;28;20042;-94
2021/06/11 05:07:37;;;;;;;18.45;11.60;;;;;;;18.63;66.37;98847.38;5117371;27;20489;-94
2021/06/11 05:10:03;;;;;;;17.40;11.30;;;;;;;19.00;64.79;98838.97;5117480;28;20397;-93
2021/06/11 05:12:29;;;;;;;18.35;11.30;;;;;;;19.31;63.49;98829.00;5116793;28;20059;-93
2021/06/11 05:14:55;;;;;;;16.33;10.52;;;;;;;19.25;61.95;98833.78;5116739;28;20063;-93
2021/06/11 05:17:23;;;;;;;14.55;10.50;;;;;;;19.34;61.54;98818.88;5115508;28;20040;-93
2021/06/11 05:19:48;;;;;;;14.10;9.82;;;;;;;19.59;60.79;98826.31;5116353;28;20089;-93
2021/06/11 05:22:14;;;;;;;16.75;10.32;;;;;;;19.47;61.48;98829.78;5116978;28;20048;-93
2021/06/11 05:24:41;;;;;;;14.07;10.05;;;;;;;19.52;61.40;98840.25;5116251;28;20378;-93
2021/06/11 05:27:07;;;;;;;15.60;10.40;;;;;;;19.54;61.05;98827.56;5116257;28;20069;-92
2021/06/11 05:29:33;;;;;;;14.50;9.38;;;;;;;19.35;61.36;98842.19;5115331;28;20104;-94
2021/06/11 05:31:59;;;;;;;17.20;10.20;;;;;;;19.04;61.34;98833.31;5115717;28;20043;-93
2021/06/11 05:34:26;;;;;;;19.30;11.02;;;;;;;19.08;61.96;98829.47;5116817;28;20032;-94
2021/06/11 05:36:52;;;;;;;17.00;10.90;;;;;;;19.54;60.99;98847.31;5116440;28;20104;-91
2021/06/11 05:39:18;;;;;;;15.55;10.70;;;;;;;19.56;62.02;98849.91;5116958;28;20477;-92
2021/06/11 05:41:44;;;;;;;15.45;10.10;;;;;;;19.89;59.17;98844.25;5116465;28;20040;-92
2021/06/11 05:44:10;;;;;;;20.70;10.40;;;;;;;20.01;58.70;98848.84;5116270;28;20043;-91
2021/06/11 05:46:35;;;;;;;18.17;10.93;;;;;;;19.92;59.35;98844.03;5115250;28;20046;-92
2021/06/11 05:49:01;;;;;;;14.10;10.80;;;;;;;20.21;59.22;98839.47;5116011;28;20031;-92
2021/06/11 05:51:28;;;;;;;16.52;10.32;;;;;;;20.57;57.09;98838.00;5116316;28;20079;-93
2021/06/11 05:53:54;;;;;;;19.73;11.40;;;;;;;20.78;57.11;98848.38;5116005;28;20046;-92
2021/06/11 05:56:20;;;;;;;14.75;10.38;;;;;;;20.90;56.95;98853.78;5116213;28;20451;-92
2021/06/11 05:58:47;;;;;;;15.85;10.77;;;;;;;20.72;56.51;98836.97;5116091;28;20104;-91
2021/06/11 06:01:13;;;;;;;15.50;10.68;;;;;;;20.63;57.44;98845.72;5115001;28;20122;-92
2021/06/11 06:03:39;;;;;;;15.77;10.85;;;;;;;20.35;58.58;98837.69;5117149;28;20460;-93
2021/06/11 06:06:05;;;;;;;15.57;10.68;;;;;;;20.48;58.52;98835.91;5116636;28;20047;-92
2021/06/11 06:08:32;;;;;;;14.77;10.70;;;;;;;20.38;58.93;98837.47;5117294;28;20067;-91
2021/06/11 06:11:01;;;;;;;15.93;11.32;;;;;;;20.53;58.81;98845.41;5116038;28;20039;-94
2021/06/11 06:13:27;;;;;;;16.52;10.50;;;;;;;20.56;57.99;98830.88;5113776;28;20553;-91
2021/06/11 06:15:54;;;;;;;14.98;11.48;;;;;;;20.72;56.70;98836.13;5116264;28;20044;-91
2021/06/11 06:18:20;;;;;;;15.00;11.13;;;;;;;20.90;56.58;98842.09;5116368;28;20411;-92
2021/06/11 06:20:46;;;;;;;16.08;11.02;;;;;;;21.08;56.04;98848.09;5116598;27;20031;-94
2021/06/11 06:23:13;;;;;;;15.80;11.35;;;;;;;21.08;56.19;98824.63;5116387;27;20408;-93
2021/06/11 06:25:40;;;;;;;20.20;11.05;;;;;;;21.18;55.92;98822.13;5115715;28;20039;-92
2021/06/11 06:28:06;;;;;;;14.75;10.23;;;;;;;21.38;55.90;98850.47;5115454;28;20059;-90
2021/06/11 06:30:32;;;;;;;14.68;10.13;;;;;;;21.20;56.76;98835.56;5114457;28;20043;-92
2021/06/11 06:32:58;;;;;;;15.40;10.55;;;;;;;21.38;56.03;98845.06;5114902;27;20511;-91
2021/06/11 06:35:23;;;;;;;16.35;10.38;;;;;;;21.48;55.63;98846.19;5115010;28;20032;-91
2021/06/11 06:37:49;;;;;;;16.67;11.23;;;;;;;21.70;55.65;98858.22;5113964;28;20122;-91
2021/06/11 06:40:15;;;;;;;15.00;10.60;;;;;;;21.83;53.83;98852.78;5113603;28;20093;-91
2021/06/11 06:42:43;;;;;;;14.63;10.13;;;;;;;21.92;54.23;98849.41;5115492;28;20036;-93
2021/06/11 06:48:09;;;;;;;15.07;11.00;;;;;;;21.41;54.80;98854.84;5151465;27;20446;-92
2021/06/11 06:50:35;;;;;;;13.88;10.20;;;;;;;21.51;55.49;98854.13;5137163;27;20100;-93
2021/06/11 06:53:04;;;;;;;13.82;10.27;;;;;;;21.73;55.33;98850.75;5136392;27;20039;-94
2021/06/11 06:55:30;;;;;;;13.65;10.48;;;;;;;22.13;53.73;98852.41;5132395;27;20047;-92
2021/06/11 06:57:56;;;;;;;16.17;10.20;;;;;;;22.20;53.29;98847.41;5131997;27;20373;-94
2021/06/11 07:00:22;;;;;;;14.48;10.25;;;;;;;22.44;53.15;98850.16;5132731;27;20057;-92
2021/06/11 07:02:48;;;;;;;16.05;10.30;;;;;;;22.58;53.11;98831.03;5134420;27;20043;-94
2021/06/11 07:05:18;;;;;;;15.07;9.90;;;;;;;22.70;52.91;98831.94;5134571;27;20484;-92
2021/06/11 07:07:43;;;;;;;16.02;10.43;;;;;;;22.84;52.25;98842.59;5133603;27;20043;-96
2021/06/11 07:10:10;;;;;;;15.02;10.38;;;;;;;22.81;52.38;98829.25;5134007;27;20490;-93
2021/06/11 07:12:36;;;;;;;15.00;10.32;;;;;;;22.93;52.53;98830.19;5132861;27;20035;-93
2021/06/11 07:15:03;;;;;;;18.52;9.98;;;;;;;23.23;51.76;98831.53;5132282;27;20046;-93
2021/06/11 07:17:29;;;;;;;15.45;10.63;;;;;;;23.38;50.91;98830.31;5133075;27;20096;-93
2021/06/11 07:19:55;;;;;;;16.45;10.15;;;;;;;23.26;51.52;98847.56;5134981;27;20040;-93
2021/06/11 07:22:22;;;;;;;15.52;10.18;;;;;;;23.17;51.56;98833.72;5134837;27;20054;-94
2021/06/11 07:24:48;;;;;;;13.63;10.02;;;;;;;23.33;52.03;98841.56;5132724;27;20122;-94
2021/06/11 07:27:14;;;;;;;15.35;10.25;;;;;;;22.83;52.22;98840.84;5133597;27;20423;-94
2021/06/11 07:29:44;;;;;;;13.45;10.57;;;;;;;23.32;51.95;98833.53;5132734;27;20040;-94
2021/06/11 07:32:10;;;;;;;13.40;9.98;;;;;;;23.52;51.01;98835.50;5131886;27;20130;-94
2021/06/11 07:34:36;;;;;;;14.77;10.23;;;;;;;23.28;51.71;98803.03;5134739;27;20051;-94
2021/06/11 07:37:03;;;;;;;15.48;11.20;;;;;;;23.24;51.29;98816.97;5133546;27;20374;-94
2021/06/11 07:39:30;;;;;;;14.35;11.00;;;;;;;23.05;51.94;98809.41;5133262;27;20054;-93
2021/06/11 07:41:56;;;;;;;14.23;9.90;;;;;;;23.53;51.07;98833.66;5133812;27;20453;-93
2021/06/11 07:44:22;;;;;;;16.38;10.23;;;;;;;23.86;49.55;98810.25;5133060;27;20036;-94
2021/06/11 07:46:48;;;;;;;17.00;9.65;;;;;;;24.07;49.17;98834.78;5129891;27;20061;-93
2021/06/11 07:49:14;;;;;;;12.63;10.15;;;;;;;24.18;47.74;98829.34;5133855;27;20028;-93
2021/06/11 07:51:40;;;;;;;13.25;9.85;;;;;;;24.24;47.74;98823.41;5133636;27;20108;-93
2021/06/11 07:54:07;;;;;;;15.43;10.10;;;;;;;23.81;49.41;98816.03;5133306;27;20035;-94
2021/06/11 07:56:36;;;;;;;21.77;10.88;;;;;;;24.25;49.55;98817.00;5133498;27;20031;-93
2021/06/11 07:59:03;;;;;;;12.10;9.93;;;;;;;24.62;46.73;98819.38;5120585;27;20044;-93
2021/06/11 08:01:29;;;;;;;17.35;9.93;;;;;;;24.98;47.22;98803.63;5119455;28;20050;-94
2021/06/11 08:03:54;;;;;;;21.50;9.68;;;;;;;24.93;46.10;98808.63;5118211;28;20134;-92
2021/06/11 08:06:20;;;;;;;18.33;10.43;;;;;;;25.26;45.73;98806.72;5118919;28;20039;-94
2021/06/11 08:08:46;;;;;;;12.30;10.38;;;;;;;24.88;46.47;98809.00;5120223;28;20066;-94
2021/06/11 08:11:12;;;;;;;13.23;10.10;;;;;;;24.27;48.60;98808.72;5119922;28;20036;-93
2021/06/11 08:13:40;;;;;;;12.88;9.35;;;;;;;24.77;47.40;98780.00;5120060;28;20561;-94
2021/06/11 08:16:06;;;;;;;16.35;9.25;;;;;;;25.29;45.44;98784.69;5118387;28;20039;-93
2021/06/11 08:18:33;;;;;;;13.48;9.40;;;;;;;25.68;45.21;98807.53;5121005;28;20039;-92
2021/06/11 08:20:59;;;;;;;13.65;9.75;;;;;;;25.72;43.88;98778.13;5118579;27;20075;-93
2021/06/11 08:23:25;;;;;;;12.48;9.20;;;;;;;26.00;43.70;98787.44;5117922;28;20050;-94
2021/06/11 08:25:51;;;;;;;13.80;9.55;;;;;;;26.22;42.58;98800.00;5118785;28;20040;-94
2021/06/11 08:28:17;;;;;;;9.38;8.35;;;;;;;25.72;41.88;98800.81;5119094;28;20051;-93
2021/06/11 08:30:44;;;;;;;12.15;8.88;;;;;;;25.28;43.47;98796.56;5119015;28;20067;-93
2021/06/11 08:33:11;;;;;;;10.77;8.77;;;;;;;25.80;43.58;98781.91;5118908;28;20592;-95
2021/06/11 08:35:37;;;;;;;11.70;8.18;;;;;;;26.15;40.92;98783.31;5118540;28;20046;-95
2021/06/11 08:38:03;;;;;;;11.80;8.48;;;;;;;26.53;40.49;98805.34;5119190;28;20040;-93
2021/06/11 08:40:31;;;;;;;10.90;8.27;;;;;;;26.69;39.56;98794.75;5119346;28;20503;-94
2021/06/11 08:42:57;;;;;;;;;;;;;;;26.85;39.08;98805.13;5120138;28;20059;-93
2021/06/11 08:45:23;;;;;;;11.57;8.70;;;;;;;27.00;41.38;98794.59;5117304;28;19927;-94
2021/06/11 08:47:52;;;;;;;12.32;8.63;;;;;;;27.02;40.39;98778.94;5117619;28;20076;-93
2021/06/11 08:50:26;;;;;;;9.43;7.50;;;;;;;27.35;39.96;98799.47;5118441;28;20039;-94
2021/06/11 08:52:53;;;;;;;9.52;7.25;;;;;;;27.23;37.53;98796.03;5118413;28;20042;-94
2021/06/11 08:55:19;;;;;;;10.50;8.05;;;;;;;27.07;39.39;98797.63;5117559;28;20035;-93
2021/06/11 08:57:46;;;;;;;11.38;7.90;;;;;;;26.36;37.95;98774.19;5118302;27;20043;-95
2021/06/11 09:00:14;;;;;;;9.77;7.53;;;;;;;26.80;39.17;98797.34;5118693;28;20040;-94
2021/06/11 09:03:11;;;;;;;10.60;8.05;;;;;;;25.82;39.97;98803.56;5119693;28;20043;-93
2021/06/11 09:05:39;;;;;;;9.20;7.57;;;;;;;25.89;40.20;98793.84;5117252;28;20043;-94
2021/06/11 09:08:13;;;;;;;12.27;7.63;;;;;;;26.42;39.45;98788.13;5120631;28;20162;-93
2021/06/11 09:10:42;;;;;;;9.77;7.90;;;;;;;25.96;39.27;98781.44;5118336;28;20043;-94
2021/06/11 09:13:08;;;;;;;9.48;7.57;;;;;;;26.38;40.12;98794.00;5119194;28;20036;-94
2021/06/11 09:15:34;;;;;;;10.23;7.28;;;;;;;26.88;39.21;98773.94;5119251;28;20092;-95
2021/06/11 09:18:00;;;;;;;11.70;7.88;;;;;;;27.26;37.32;98803.09;5120863;28;20039;-93
2021/06/11 09:20:40;;;;;;;9.07;7.57;;;;;;;27.21;39.87;98789.84;5120370;27;20408;-95
2021/06/11 09:23:08;;;;;;;9.52;7.85;;;;;;;27.06;38.23;98774.91;5119542;28;20050;-92
2021/06/11 09:25:36;;;;;;;10.50;7.60;;;;;;;26.74;39.14;98776.09;5121122;28;20112;-94
2021/06/11 09:28:04;;;;;;;9.80;7.25;;;;;;;27.00;38.34;98791.84;5119702;28;20036;-92
2021/06/11 09:30:33;;;;;;;9.60;7.47;;;;;;;26.98;37.88;98785.72;5114300;28;20062;-93
2021/06/11 09:33:01;;;;;;;8.35;7.28;;;;;;;27.00;37.85;98780.94;5116973;28;20292;-93
2021/06/11 09:35:33;;;;;;;9.52;7.63;;;;;;;27.10;36.86;98795.44;5114893;27;20046;-91
2021/06/11 09:41:27;;;;;;;8.75;7.25;;;;;;;27.28;38.10;98800.19;5131311;27;20735;-91
2021/06/11 09:43:56;;;;;;;10.32;7.47;;;;;;;27.69;37.18;98807.09;5098788;28;20489;-91
2021/06/11 09:46:22;;;;;;;9.88;7.10;;;;;;;27.66;35.93;98785.56;5100829;28;20593;-91
2021/06/11 09:48:50;;;;;;;8.75;6.82;;;;;;;27.78;36.14;98791.69;5100353;28;20035;-90
2021/06/11 09:51:20;;;;;;;;;;;;;;;28.08;35.63;98797.91;5106057;28;20127;-93
2021/06/11 09:53:46;;;;;;;10.10;7.28;;;;;;;28.35;36.75;98775.16;5100465;28;19919;-93
2021/06/11 09:56:19;;;;;;;9.30;7.18;;;;;;;28.67;35.67;98799.28;5105029;28;20028;-93
2021/06/11 09:58:46;;;;;;;8.30;7.35;;;;;;;28.10;35.37;98793.16;5099713;28;20060;-91
2021/06/11 10:01:13;;;;;;;10.07;7.68;;;;;;;28.28;34.33;98796.78;5100822;28;20047;-93
2021/06/11 10:03:42;;;;;;;7.68;6.85;;;;;;;28.42;34.49;98800.88;5109816;28;20040;-94
2021/06/11 10:06:09;;;;;;;8.63;6.88;;;;;;;28.53;34.05;98781.50;5103996;28;20048;-92
2021/06/11 10:08:37;;;;;;;9.68;7.90;;;;;;;28.70;35.44;98795.38;5103166;28;20055;-93
2021/06/11 10:11:05;;;;;;;8.65;6.80;;;;;;;28.52;33.74;98767.97;5101200;28;20098;-92
2021/06/11 10:13:31;;;;;;;8.65;7.03;;;;;;;28.62;34.85;98771.50;5094808;28;20040;-92
2021/06/11 10:16:04;;;;;;;9.80;6.82;;;;;;;28.28;34.56;98769.44;5104917;28;20090;-93
2021/06/11 10:18:31;;;;;;;9.25;6.55;;;;;;;28.47;33.24;98798.50;5097449;28;20434;-92
2021/06/11 10:20:58;;;;;;;8.50;6.60;;;;;;;27.31;35.01;98789.00;5108236;28;20040;-91
2021/06/11 10:23:26;;;;;;;9.50;6.63;;;;;;;27.69;35.54;98768.00;5096015;28;20040;-93
2021/06/11 10:25:56;;;;;;;7.43;6.63;;;;;;;27.53;36.14;98787.78;5096767;28;20041;-92
2021/06/11 10:28:25;;;;;;;8.05;6.50;;;;;;;27.76;36.11;98771.84;5103882;28;20040;-92
2021/06/11 10:30:55;;;;;;;8.75;6.40;;;;;;;27.37;35.83;98782.91;5100046;28;20489;-94
2021/06/11 10:33:51;;;;;;;8.48;6.32;;;;;;;27.18;35.00;98781.09;5098211;28;20059;-93
2021/06/11 10:36:38;;;;;;;8.77;6.45;;;;;;;27.40;35.90;98768.97;5095115;28;20107;-94
2021/06/11 10:39:25;;;;;;;7.50;5.75;;;;;;;27.33;33.26;98755.06;5092548;28;20150;-93
2021/06/11 10:41:57;;;;;;;7.43;5.30;;;;;;;27.69;33.08;98773.47;5099274;28;20509;-92
2021/06/11 10:44:31;;;;;;;8.43;5.97;;;;;;;28.32;31.86;98770.81;5096954;28;20066;-93
2021/06/11 10:47:24;;;;;;;8.00;5.35;;;;;;;28.28;32.19;98774.91;5094147;28;20485;-92
2021/06/11 10:50:11;;;;;;;6.95;5.05;;;;;;;28.59;31.73;98769.09;5101555;28;20036;-93
2021/06/11 10:52:38;;;;;;;5.93;4.88;;;;;;;28.54;32.39;98753.16;5082210;28;20044;-92
2021/06/11 10:55:45;;;;;;;6.38;5.32;;;;;;;29.26;29.79;98758.56;5086869;28;20496;-92
2021/06/11 10:58:23;;;;;;;5.85;5.00;;;;;;;28.61;30.65;98751.50;5083112;28;20041;-91
2021/06/11 11:00:48;;;;;;;6.37;5.00;;;;;;;29.07;29.80;98757.69;5082286;28;20050;-93
2021/06/11 11:03:41;;;;;;;6.55;5.43;;;;;;;29.27;29.33;98750.16;5088523;28;20040;-92
2021/06/11 11:06:44;;;;;;;7.55;5.35;;;;;;;29.28;29.87;98756.50;4990300;28;20055;-93
2021/06/11 11:09:12;;;;;;;6.60;5.47;;;;;;;29.55;29.46;98743.66;4990800;28;20104;-93
2021/06/11 11:11:41;;;;;;;6.63;5.40;;;;;;;29.65;28.87;98739.75;4992110;28;20065;-91
2021/06/11 11:14:28;;;;;;;6.85;5.47;;;;;;;29.64;29.05;98745.41;4991963;28;20084;-90
2021/06/11 11:16:57;;;;;;;6.45;5.60;;;;;;;29.42;31.15;98736.72;4986695;28;20571;-92
2021/06/11 11:19:44;;;;;;;7.13;5.28;;;;;;;29.17;30.33;98734.84;4994832;28;20042;-91
2021/06/11 11:22:24;;;;;;;6.88;5.32;;;;;;;28.86;29.41;98738.03;4992077;28;20086;-91
2021/06/11 11:24:52;;;;;;;6.40;5.22;;;;;;;28.28;32.35;98733.91;4995043;28;20053;-91
2021/06/11 11:27:17;;;;;;;7.18;5.15;;;;;;;28.40;31.22;98742.72;4991248;28;20046;-93
2021/06/11 11:29:43;;;;;;;6.38;5.20;;;;;;;28.63;31.41;98743.16;4992578;28;20053;-91
2021/06/11 11:32:09;;;;;;;6.60;5.20;;;;;;;29.17;29.97;98741.22;4992062;28;20041;-93
2021/06/11 11:34:35;;;;;;;8.45;5.70;;;;;;;28.77;30.56;98739.84;4995931;28;20113;-94